sensor_id;sensor_type;location;lat;lon;timestamp;temperature;humidity
41533;DHT22;27262;-35.248;149.138;2023-09-19T00:02:10;20.30;59.70
41533;DHT22;27262;-35.248;149.138;2023-09-19T00:04:41;20.30;59.70
41533;DHT22;27262;-35.248;149.138;2023-09-19T00:07:12;20.30;59.80
41533;DHT22;27262;-35.248;149.138;2023-09-19T00:09:43;20.30;59.80
41533;DHT22;27262;-35.248;149.138;2023-09-19T00:12:13;20.30;59.80
41533;DHT22;27262;-35.248;149.138;2023-09-19T00:14:44;20.40;59.80
41533;DHT22;27262;-35.248;149.138;2023-09-19T00:17:14;20.40;59.80
41533;DHT22;27262;-35.248;149.138;2023-09-19T00:19:45;20.40;59.90
41533;DHT22;27262;-35.248;149.138;2023-09-19T00:22:16;20.40;59.90
41533;DHT22;27262;-35.248;149.138;2023-09-19T00:24:47;20.40;59.90
41533;DHT22;27262;-35.248;149.138;2023-09-19T00:27:17;20.50;59.90
41533;DHT22;27262;-35.248;149.138;2023-09-19T00:29:48;20.50;60.00
41533;DHT22;27262;-35.248;149.138;2023-09-19T00:32:18;20.50;59.90
41533;DHT22;27262;-35.248;149.138;2023-09-19T00:34:48;20.50;59.90
41533;DHT22;27262;-35.248;149.138;2023-09-19T00:37:19;20.50;59.90
41533;DHT22;27262;-35.248;149.138;2023-09-19T00:39:49;20.50;59.90
41533;DHT22;27262;-35.248;149.138;2023-09-19T00:42:20;20.60;59.90
41533;DHT22;27262;-35.248;149.138;2023-09-19T00:44:51;20.60;59.90
41533;DHT22;27262;-35.248;149.138;2023-09-19T00:47:21;20.60;59.80
41533;DHT22;27262;-35.248;149.138;2023-09-19T00:49:52;20.60;59.70
41533;DHT22;27262;-35.248;149.138;2023-09-19T00:52:23;20.60;59.60
41533;DHT22;27262;-35.248;149.138;2023-09-19T00:54:54;20.70;59.60
41533;DHT22;27262;-35.248;149.138;2023-09-19T00:57:26;20.70;59.50
41533;DHT22;27262;-35.248;149.138;2023-09-19T00:59:57;20.70;59.40
41533;DHT22;27262;-35.248;149.138;2023-09-19T01:02:28;20.70;59.40
41533;DHT22;27262;-35.248;149.138;2023-09-19T01:05:00;20.70;59.40
41533;DHT22;27262;-35.248;149.138;2023-09-19T01:07:32;20.70;59.40
41533;DHT22;27262;-35.248;149.138;2023-09-19T01:10:07;20.80;59.30
41533;DHT22;27262;-35.248;149.138;2023-09-19T01:15:50;20.80;59.50
41533;DHT22;27262;-35.248;149.138;2023-09-19T01:29:11;20.90;59.80
41533;DHT22;27262;-35.248;149.138;2023-09-19T01:31:43;20.90;59.90
41533;DHT22;27262;-35.248;149.138;2023-09-19T01:34:15;20.90;59.80
41533;DHT22;27262;-35.248;149.138;2023-09-19T01:36:45;20.90;59.70
41533;DHT22;27262;-35.248;149.138;2023-09-19T01:39:16;20.90;59.70
41533;DHT22;27262;-35.248;149.138;2023-09-19T01:42:27;20.90;59.60
41533;DHT22;27262;-35.248;149.138;2023-09-19T01:45:35;20.90;59.60
41533;DHT22;27262;-35.248;149.138;2023-09-19T01:48:49;20.90;59.60
41533;DHT22;27262;-35.248;149.138;2023-09-19T01:54:31;21.00;59.80
41533;DHT22;27262;-35.248;149.138;2023-09-19T01:57:07;21.00;59.80
41533;DHT22;27262;-35.248;149.138;2023-09-19T01:59:59;21.00;59.80
41533;DHT22;27262;-35.248;149.138;2023-09-19T02:02:40;21.10;60.00
41533;DHT22;27262;-35.248;149.138;2023-09-19T02:05:10;21.10;59.90
41533;DHT22;27262;-35.248;149.138;2023-09-19T02:07:42;21.10;59.80
41533;DHT22;27262;-35.248;149.138;2023-09-19T02:10:12;21.10;59.70
41533;DHT22;27262;-35.248;149.138;2023-09-19T02:12:43;21.10;59.50
41533;DHT22;27262;-35.248;149.138;2023-09-19T02:15:15;21.10;59.40
41533;DHT22;27262;-35.248;149.138;2023-09-19T02:17:45;21.20;59.30
41533;DHT22;27262;-35.248;149.138;2023-09-19T02:20:15;21.20;59.20
41533;DHT22;27262;-35.248;149.138;2023-09-19T02:22:46;21.20;59.20
41533;DHT22;27262;-35.248;149.138;2023-09-19T02:25:19;21.20;59.20
41533;DHT22;27262;-35.248;149.138;2023-09-19T02:27:52;21.20;59.00
41533;DHT22;27262;-35.248;149.138;2023-09-19T02:30:24;21.20;59.00
41533;DHT22;27262;-35.248;149.138;2023-09-19T02:32:57;21.30;59.00
41533;DHT22;27262;-35.248;149.138;2023-09-19T02:35:28;21.30;58.90
41533;DHT22;27262;-35.248;149.138;2023-09-19T02:38:02;21.30;58.90
41533;DHT22;27262;-35.248;149.138;2023-09-19T02:40:35;21.30;58.80
41533;DHT22;27262;-35.248;149.138;2023-09-19T02:43:06;21.30;58.70
41533;DHT22;27262;-35.248;149.138;2023-09-19T02:45:38;21.30;58.70
41533;DHT22;27262;-35.248;149.138;2023-09-19T02:48:09;21.30;58.50
41533;DHT22;27262;-35.248;149.138;2023-09-19T02:50:41;21.30;58.50
41533;DHT22;27262;-35.248;149.138;2023-09-19T02:53:11;21.40;58.60
41533;DHT22;27262;-35.248;149.138;2023-09-19T02:55:42;21.40;59.20
41533;DHT22;27262;-35.248;149.138;2023-09-19T02:58:12;21.40;58.60
41533;DHT22;27262;-35.248;149.138;2023-09-19T03:00:43;21.40;58.70
41533;DHT22;27262;-35.248;149.138;2023-09-19T03:03:17;21.40;58.70
41533;DHT22;27262;-35.248;149.138;2023-09-19T03:05:47;21.50;58.90
41533;DHT22;27262;-35.248;149.138;2023-09-19T03:08:20;21.50;58.90
41533;DHT22;27262;-35.248;149.138;2023-09-19T03:10:51;21.50;59.00
41533;DHT22;27262;-35.248;149.138;2023-09-19T03:13:22;21.50;59.00
41533;DHT22;27262;-35.248;149.138;2023-09-19T03:15:54;21.50;59.00
41533;DHT22;27262;-35.248;149.138;2023-09-19T03:18:26;21.60;59.10
41533;DHT22;27262;-35.248;149.138;2023-09-19T03:20:56;21.60;59.10
41533;DHT22;27262;-35.248;149.138;2023-09-19T03:23:30;21.60;59.10
41533;DHT22;27262;-35.248;149.138;2023-09-19T03:26:00;21.60;59.10
41533;DHT22;27262;-35.248;149.138;2023-09-19T03:28:34;21.60;59.10
41533;DHT22;27262;-35.248;149.138;2023-09-19T03:31:06;21.70;59.20
41533;DHT22;27262;-35.248;149.138;2023-09-19T03:33:37;21.70;59.20
41533;DHT22;27262;-35.248;149.138;2023-09-19T03:36:07;21.70;59.10
41533;DHT22;27262;-35.248;149.138;2023-09-19T03:38:38;21.70;59.30
41533;DHT22;27262;-35.248;149.138;2023-09-19T03:41:08;21.70;59.40
41533;DHT22;27262;-35.248;149.138;2023-09-19T03:43:39;21.70;59.40
41533;DHT22;27262;-35.248;149.138;2023-09-19T03:46:10;21.70;59.50
41533;DHT22;27262;-35.248;149.138;2023-09-19T03:48:42;21.80;60.00
41533;DHT22;27262;-35.248;149.138;2023-09-19T03:51:13;21.80;59.30
41533;DHT22;27262;-35.248;149.138;2023-09-19T03:53:43;21.80;59.20
41533;DHT22;27262;-35.248;149.138;2023-09-19T03:56:14;21.80;59.00
41533;DHT22;27262;-35.248;149.138;2023-09-19T03:58:45;21.80;58.90
41533;DHT22;27262;-35.248;149.138;2023-09-19T04:01:15;21.90;58.90
41533;DHT22;27262;-35.248;149.138;2023-09-19T04:03:46;21.80;58.80
41533;DHT22;27262;-35.248;149.138;2023-09-19T04:06:17;21.90;58.90
41533;DHT22;27262;-35.248;149.138;2023-09-19T04:08:47;21.90;58.90
41533;DHT22;27262;-35.248;149.138;2023-09-19T04:11:18;21.90;58.80
41533;DHT22;27262;-35.248;149.138;2023-09-19T04:13:48;21.90;58.80
41533;DHT22;27262;-35.248;149.138;2023-09-19T04:16:19;22.00;58.90
41533;DHT22;27262;-35.248;149.138;2023-09-19T04:18:49;22.00;58.90
41533;DHT22;27262;-35.248;149.138;2023-09-19T04:21:19;22.00;58.90
41533;DHT22;27262;-35.248;149.138;2023-09-19T04:23:50;22.00;58.90
41533;DHT22;27262;-35.248;149.138;2023-09-19T04:26:20;22.00;58.90
41533;DHT22;27262;-35.248;149.138;2023-09-19T04:28:51;22.10;58.90
41533;DHT22;27262;-35.248;149.138;2023-09-19T04:31:21;22.10;58.80
41533;DHT22;27262;-35.248;149.138;2023-09-19T04:33:52;22.10;58.80
41533;DHT22;27262;-35.248;149.138;2023-09-19T04:36:22;22.20;58.80
41533;DHT22;27262;-35.248;149.138;2023-09-19T04:39:03;22.20;58.80
41533;DHT22;27262;-35.248;149.138;2023-09-19T04:41:37;22.20;58.80
41533;DHT22;27262;-35.248;149.138;2023-09-19T04:44:11;22.20;58.70
41533;DHT22;27262;-35.248;149.138;2023-09-19T04:46:43;22.30;58.80
41533;DHT22;27262;-35.248;149.138;2023-09-19T04:49:16;22.30;58.80
41533;DHT22;27262;-35.248;149.138;2023-09-19T04:51:47;22.30;58.80
41533;DHT22;27262;-35.248;149.138;2023-09-19T04:54:19;22.30;58.70
41533;DHT22;27262;-35.248;149.138;2023-09-19T04:56:50;22.30;58.70
41533;DHT22;27262;-35.248;149.138;2023-09-19T04:59:20;22.30;58.50
41533;DHT22;27262;-35.248;149.138;2023-09-19T05:01:50;22.40;58.40
41533;DHT22;27262;-35.248;149.138;2023-09-19T05:04:21;22.40;58.40
41533;DHT22;27262;-35.248;149.138;2023-09-19T05:06:51;22.40;58.20
41533;DHT22;27262;-35.248;149.138;2023-09-19T05:09:23;22.40;58.10
41533;DHT22;27262;-35.248;149.138;2023-09-19T05:11:56;22.40;58.10
41533;DHT22;27262;-35.248;149.138;2023-09-19T05:14:33;22.40;58.20
41533;DHT22;27262;-35.248;149.138;2023-09-19T05:17:06;22.40;58.20
41533;DHT22;27262;-35.248;149.138;2023-09-19T05:19:37;22.40;58.30
41533;DHT22;27262;-35.248;149.138;2023-09-19T05:22:08;22.50;58.40
41533;DHT22;27262;-35.248;149.138;2023-09-19T05:24:39;22.50;58.40
41533;DHT22;27262;-35.248;149.138;2023-09-19T05:27:09;22.50;58.50
41533;DHT22;27262;-35.248;149.138;2023-09-19T05:29:40;22.50;58.40
41533;DHT22;27262;-35.248;149.138;2023-09-19T05:32:12;22.60;58.40
41533;DHT22;27262;-35.248;149.138;2023-09-19T05:34:42;22.60;58.40
41533;DHT22;27262;-35.248;149.138;2023-09-19T05:37:13;22.60;58.30
41533;DHT22;27262;-35.248;149.138;2023-09-19T05:39:46;22.60;58.40
41533;DHT22;27262;-35.248;149.138;2023-09-19T05:42:17;22.60;58.30
41533;DHT22;27262;-35.248;149.138;2023-09-19T05:44:47;22.60;58.30
41533;DHT22;27262;-35.248;149.138;2023-09-19T05:47:18;22.60;58.20
41533;DHT22;27262;-35.248;149.138;2023-09-19T05:49:48;22.60;58.20
41533;DHT22;27262;-35.248;149.138;2023-09-19T05:52:20;22.70;58.20
41533;DHT22;27262;-35.248;149.138;2023-09-19T05:54:52;22.70;58.20
41533;DHT22;27262;-35.248;149.138;2023-09-19T05:57:22;22.70;58.20
41533;DHT22;27262;-35.248;149.138;2023-09-19T05:59:54;22.70;58.10
41533;DHT22;27262;-35.248;149.138;2023-09-19T06:02:25;22.70;58.20
41533;DHT22;27262;-35.248;149.138;2023-09-19T06:04:59;22.70;58.20
41533;DHT22;27262;-35.248;149.138;2023-09-19T06:07:29;22.70;58.10
41533;DHT22;27262;-35.248;149.138;2023-09-19T06:10:06;22.80;58.10
41533;DHT22;27262;-35.248;149.138;2023-09-19T06:12:42;22.70;58.10
41533;DHT22;27262;-35.248;149.138;2023-09-19T06:15:16;22.80;58.10
41533;DHT22;27262;-35.248;149.138;2023-09-19T06:17:49;22.80;58.10
41533;DHT22;27262;-35.248;149.138;2023-09-19T06:20:20;22.80;58.10
41533;DHT22;27262;-35.248;149.138;2023-09-19T06:22:52;22.80;58.10
41533;DHT22;27262;-35.248;149.138;2023-09-19T06:25:23;22.90;58.20
41533;DHT22;27262;-35.248;149.138;2023-09-19T06:27:53;22.90;58.10
41533;DHT22;27262;-35.248;149.138;2023-09-19T06:30:25;22.90;58.20
41533;DHT22;27262;-35.248;149.138;2023-09-19T06:32:59;22.90;58.10
41533;DHT22;27262;-35.248;149.138;2023-09-19T06:35:33;23.00;58.10
41533;DHT22;27262;-35.248;149.138;2023-09-19T06:38:04;23.00;58.10
41533;DHT22;27262;-35.248;149.138;2023-09-19T06:40:35;23.00;58.00
41533;DHT22;27262;-35.248;149.138;2023-09-19T06:43:06;23.00;57.90
41533;DHT22;27262;-35.248;149.138;2023-09-19T06:45:36;23.00;57.80
41533;DHT22;27262;-35.248;149.138;2023-09-19T06:48:07;23.00;57.70
41533;DHT22;27262;-35.248;149.138;2023-09-19T06:50:39;23.00;57.60
41533;DHT22;27262;-35.248;149.138;2023-09-19T06:53:11;23.00;57.60
41533;DHT22;27262;-35.248;149.138;2023-09-19T06:55:41;23.00;57.50
41533;DHT22;27262;-35.248;149.138;2023-09-19T06:58:13;23.10;57.50
41533;DHT22;27262;-35.248;149.138;2023-09-19T07:00:46;23.00;57.40
41533;DHT22;27262;-35.248;149.138;2023-09-19T07:03:16;23.00;57.40
41533;DHT22;27262;-35.248;149.138;2023-09-19T07:05:51;23.00;57.30
41533;DHT22;27262;-35.248;149.138;2023-09-19T07:08:22;23.00;57.30
41533;DHT22;27262;-35.248;149.138;2023-09-19T07:11:11;23.10;57.30
41533;DHT22;27262;-35.248;149.138;2023-09-19T07:14:00;23.10;57.40
41533;DHT22;27262;-35.248;149.138;2023-09-19T07:16:49;23.10;57.50
41533;DHT22;27262;-35.248;149.138;2023-09-19T07:19:20;23.00;57.50
41533;DHT22;27262;-35.248;149.138;2023-09-19T07:21:51;23.10;57.60
41533;DHT22;27262;-35.248;149.138;2023-09-19T07:24:22;23.10;57.60
41533;DHT22;27262;-35.248;149.138;2023-09-19T07:26:52;23.10;57.60
41533;DHT22;27262;-35.248;149.138;2023-09-19T07:29:23;23.10;57.60
41533;DHT22;27262;-35.248;149.138;2023-09-19T07:31:53;23.10;57.60
41533;DHT22;27262;-35.248;149.138;2023-09-19T07:34:27;23.10;57.50
41533;DHT22;27262;-35.248;149.138;2023-09-19T07:36:58;23.10;57.50
41533;DHT22;27262;-35.248;149.138;2023-09-19T07:39:28;23.10;57.50
41533;DHT22;27262;-35.248;149.138;2023-09-19T07:41:59;23.10;58.10
41533;DHT22;27262;-35.248;149.138;2023-09-19T07:44:29;23.10;57.50
41533;DHT22;27262;-35.248;149.138;2023-09-19T07:47:00;23.10;57.50
41533;DHT22;27262;-35.248;149.138;2023-09-19T07:49:32;23.10;57.50
41533;DHT22;27262;-35.248;149.138;2023-09-19T07:52:04;23.10;57.50
41533;DHT22;27262;-35.248;149.138;2023-09-19T07:54:35;23.10;57.50
41533;DHT22;27262;-35.248;149.138;2023-09-19T07:57:08;23.10;57.40
41533;DHT22;27262;-35.248;149.138;2023-09-19T07:59:38;23.10;57.50
41533;DHT22;27262;-35.248;149.138;2023-09-19T08:02:11;23.10;57.40
41533;DHT22;27262;-35.248;149.138;2023-09-19T08:04:47;23.10;57.60
41533;DHT22;27262;-35.248;149.138;2023-09-19T08:07:18;23.10;57.50
41533;DHT22;27262;-35.248;149.138;2023-09-19T08:09:49;23.10;57.50
41533;DHT22;27262;-35.248;149.138;2023-09-19T08:12:19;23.10;57.40
41533;DHT22;27262;-35.248;149.138;2023-09-19T08:14:54;23.10;57.30
41533;DHT22;27262;-35.248;149.138;2023-09-19T08:17:25;23.10;57.20
41533;DHT22;27262;-35.248;149.138;2023-09-19T08:19:55;23.10;57.00
41533;DHT22;27262;-35.248;149.138;2023-09-19T08:22:26;23.20;56.90
41533;DHT22;27262;-35.248;149.138;2023-09-19T08:24:57;23.10;56.70
41533;DHT22;27262;-35.248;149.138;2023-09-19T08:27:27;23.20;56.70
41533;DHT22;27262;-35.248;149.138;2023-09-19T08:29:58;23.20;56.60
41533;DHT22;27262;-35.248;149.138;2023-09-19T08:32:29;23.10;56.50
41533;DHT22;27262;-35.248;149.138;2023-09-19T08:34:59;23.20;56.50
41533;DHT22;27262;-35.248;149.138;2023-09-19T08:37:30;23.20;56.70
41533;DHT22;27262;-35.248;149.138;2023-09-19T08:40:00;23.20;57.00
41533;DHT22;27262;-35.248;149.138;2023-09-19T08:42:31;23.20;57.20
41533;DHT22;27262;-35.248;149.138;2023-09-19T08:45:01;23.20;57.30
41533;DHT22;27262;-35.248;149.138;2023-09-19T08:50:33;23.20;57.40
41533;DHT22;27262;-35.248;149.138;2023-09-19T08:53:11;23.20;57.50
41533;DHT22;27262;-35.248;149.138;2023-09-19T08:55:45;23.20;57.50
41533;DHT22;27262;-35.248;149.138;2023-09-19T08:58:19;23.20;57.50
41533;DHT22;27262;-35.248;149.138;2023-09-19T09:00:54;23.20;57.30
41533;DHT22;27262;-35.248;149.138;2023-09-19T09:03:29;23.20;57.30
41533;DHT22;27262;-35.248;149.138;2023-09-19T09:06:02;23.20;57.30
41533;DHT22;27262;-35.248;149.138;2023-09-19T09:08:33;23.20;57.30
41533;DHT22;27262;-35.248;149.138;2023-09-19T09:11:04;23.20;57.20
41533;DHT22;27262;-35.248;149.138;2023-09-19T09:13:40;23.20;57.20
41533;DHT22;27262;-35.248;149.138;2023-09-19T09:16:12;23.20;57.20
41533;DHT22;27262;-35.248;149.138;2023-09-19T09:18:43;23.20;57.20
41533;DHT22;27262;-35.248;149.138;2023-09-19T09:21:13;23.20;57.20
41533;DHT22;27262;-35.248;149.138;2023-09-19T09:23:45;23.20;57.20
41533;DHT22;27262;-35.248;149.138;2023-09-19T09:26:15;23.20;57.20
41533;DHT22;27262;-35.248;149.138;2023-09-19T09:28:46;23.20;57.30
41533;DHT22;27262;-35.248;149.138;2023-09-19T09:31:25;23.20;57.30
41533;DHT22;27262;-35.248;149.138;2023-09-19T09:33:56;23.20;57.30
41533;DHT22;27262;-35.248;149.138;2023-09-19T09:36:35;23.10;57.30
41533;DHT22;27262;-35.248;149.138;2023-09-19T09:39:06;23.20;57.30
41533;DHT22;27262;-35.248;149.138;2023-09-19T09:41:54;23.10;57.30
41533;DHT22;27262;-35.248;149.138;2023-09-19T09:44:25;23.10;57.40
41533;DHT22;27262;-35.248;149.138;2023-09-19T09:46:57;23.10;57.40
41533;DHT22;27262;-35.248;149.138;2023-09-19T09:49:50;23.10;57.40
41533;DHT22;27262;-35.248;149.138;2023-09-19T09:52:23;23.10;57.50
41533;DHT22;27262;-35.248;149.138;2023-09-19T09:55:01;23.10;57.50
41533;DHT22;27262;-35.248;149.138;2023-09-19T09:57:35;23.10;57.40
41533;DHT22;27262;-35.248;149.138;2023-09-19T10:00:06;23.10;57.50
41533;DHT22;27262;-35.248;149.138;2023-09-19T10:02:39;23.10;57.40
41533;DHT22;27262;-35.248;149.138;2023-09-19T10:05:14;23.10;57.50
41533;DHT22;27262;-35.248;149.138;2023-09-19T10:07:57;23.10;57.40
41533;DHT22;27262;-35.248;149.138;2023-09-19T10:11:00;23.10;57.50
41533;DHT22;27262;-35.248;149.138;2023-09-19T10:13:54;23.10;57.60
41533;DHT22;27262;-35.248;149.138;2023-09-19T10:16:48;23.10;57.60
41533;DHT22;27262;-35.248;149.138;2023-09-19T10:19:29;23.10;57.70
41533;DHT22;27262;-35.248;149.138;2023-09-19T10:22:05;23.10;57.70
41533;DHT22;27262;-35.248;149.138;2023-09-19T10:24:38;23.00;57.70
41533;DHT22;27262;-35.248;149.138;2023-09-19T10:27:29;23.00;57.70
41533;DHT22;27262;-35.248;149.138;2023-09-19T10:30:08;23.00;57.70
41533;DHT22;27262;-35.248;149.138;2023-09-19T10:32:40;23.00;57.70
41533;DHT22;27262;-35.248;149.138;2023-09-19T10:35:12;23.00;57.70
41533;DHT22;27262;-35.248;149.138;2023-09-19T10:37:46;23.00;57.70
41533;DHT22;27262;-35.248;149.138;2023-09-19T10:40:20;23.00;57.70
41533;DHT22;27262;-35.248;149.138;2023-09-19T10:42:51;23.00;57.60
41533;DHT22;27262;-35.248;149.138;2023-09-19T10:45:22;23.00;57.60
41533;DHT22;27262;-35.248;149.138;2023-09-19T10:47:56;23.00;57.60
41533;DHT22;27262;-35.248;149.138;2023-09-19T10:50:32;23.00;57.60
41533;DHT22;27262;-35.248;149.138;2023-09-19T10:53:06;23.00;57.70
41533;DHT22;27262;-35.248;149.138;2023-09-19T10:55:38;23.00;57.70
41533;DHT22;27262;-35.248;149.138;2023-09-19T10:58:10;23.00;57.70
41533;DHT22;27262;-35.248;149.138;2023-09-19T11:01:11;23.00;57.70
41533;DHT22;27262;-35.248;149.138;2023-09-19T11:03:45;23.00;57.70
41533;DHT22;27262;-35.248;149.138;2023-09-19T11:06:19;22.90;57.80
41533;DHT22;27262;-35.248;149.138;2023-09-19T11:30:48;22.90;57.80
41533;DHT22;27262;-35.248;149.138;2023-09-19T11:33:29;22.90;57.90
41533;DHT22;27262;-35.248;149.138;2023-09-19T11:36:16;22.90;57.90
41533;DHT22;27262;-35.248;149.138;2023-09-19T11:46:56;22.80;57.90
41533;DHT22;27262;-35.248;149.138;2023-09-19T11:49:32;22.80;57.90
41533;DHT22;27262;-35.248;149.138;2023-09-19T11:52:04;22.80;58.00
41533;DHT22;27262;-35.248;149.138;2023-09-19T11:54:40;22.80;58.00
41533;DHT22;27262;-35.248;149.138;2023-09-19T11:57:20;22.80;57.90
41533;DHT22;27262;-35.248;149.138;2023-09-19T11:59:52;22.80;57.90
41533;DHT22;27262;-35.248;149.138;2023-09-19T12:02:39;22.80;57.90
41533;DHT22;27262;-35.248;149.138;2023-09-19T12:05:13;22.80;57.90
41533;DHT22;27262;-35.248;149.138;2023-09-19T12:07:45;22.80;58.10
41533;DHT22;27262;-35.248;149.138;2023-09-19T12:10:17;22.80;58.10
41533;DHT22;27262;-35.248;149.138;2023-09-19T12:12:51;22.80;58.10
41533;DHT22;27262;-35.248;149.138;2023-09-19T12:15:26;22.80;58.10
41533;DHT22;27262;-35.248;149.138;2023-09-19T12:18:03;22.80;58.10
41533;DHT22;27262;-35.248;149.138;2023-09-19T12:20:44;22.80;58.10
41533;DHT22;27262;-35.248;149.138;2023-09-19T12:23:20;22.80;58.00
41533;DHT22;27262;-35.248;149.138;2023-09-19T12:25:50;22.70;58.10
41533;DHT22;27262;-35.248;149.138;2023-09-19T12:28:27;22.70;58.00
41533;DHT22;27262;-35.248;149.138;2023-09-19T12:31:08;22.80;58.10
41533;DHT22;27262;-35.248;149.138;2023-09-19T12:33:39;22.70;58.00
41533;DHT22;27262;-35.248;149.138;2023-09-19T12:36:25;22.70;58.00
41533;DHT22;27262;-35.248;149.138;2023-09-19T12:38:59;22.70;58.00
41533;DHT22;27262;-35.248;149.138;2023-09-19T12:41:30;22.70;58.10
41533;DHT22;27262;-35.248;149.138;2023-09-19T12:44:00;22.70;58.00
41533;DHT22;27262;-35.248;149.138;2023-09-19T12:46:32;22.70;58.00
41533;DHT22;27262;-35.248;149.138;2023-09-19T12:49:18;22.70;58.00
41533;DHT22;27262;-35.248;149.138;2023-09-19T12:51:49;22.70;58.00
41533;DHT22;27262;-35.248;149.138;2023-09-19T12:54:25;22.70;58.10
41533;DHT22;27262;-35.248;149.138;2023-09-19T12:56:56;22.70;58.10
41533;DHT22;27262;-35.248;149.138;2023-09-19T12:59:30;22.70;58.10
41533;DHT22;27262;-35.248;149.138;2023-09-19T13:02:05;22.70;58.00
41533;DHT22;27262;-35.248;149.138;2023-09-19T13:04:37;22.70;58.10
41533;DHT22;27262;-35.248;149.138;2023-09-19T13:07:40;22.60;58.00
41533;DHT22;27262;-35.248;149.138;2023-09-19T13:10:14;22.70;58.00
41533;DHT22;27262;-35.248;149.138;2023-09-19T13:12:45;22.60;58.00
41533;DHT22;27262;-35.248;149.138;2023-09-19T13:15:16;22.60;58.00
41533;DHT22;27262;-35.248;149.138;2023-09-19T13:17:50;22.60;58.00
41533;DHT22;27262;-35.248;149.138;2023-09-19T13:20:26;22.60;58.00
41533;DHT22;27262;-35.248;149.138;2023-09-19T13:23:01;22.60;58.00
41533;DHT22;27262;-35.248;149.138;2023-09-19T13:25:40;22.60;58.00
41533;DHT22;27262;-35.248;149.138;2023-09-19T13:28:10;22.60;58.00
41533;DHT22;27262;-35.248;149.138;2023-09-19T13:30:41;22.60;58.00
41533;DHT22;27262;-35.248;149.138;2023-09-19T13:33:13;22.60;58.10
41533;DHT22;27262;-35.248;149.138;2023-09-19T13:35:50;22.60;58.00
41533;DHT22;27262;-35.248;149.138;2023-09-19T13:38:22;22.60;58.10
41533;DHT22;27262;-35.248;149.138;2023-09-19T13:40:53;22.60;58.10
41533;DHT22;27262;-35.248;149.138;2023-09-19T13:43:24;22.60;58.10
41533;DHT22;27262;-35.248;149.138;2023-09-19T13:45:54;22.50;58.00
41533;DHT22;27262;-35.248;149.138;2023-09-19T13:48:27;22.50;58.00
41533;DHT22;27262;-35.248;149.138;2023-09-19T13:50:59;22.50;58.70
41533;DHT22;27262;-35.248;149.138;2023-09-19T13:53:30;22.50;58.10
41533;DHT22;27262;-35.248;149.138;2023-09-19T13:56:00;22.50;58.00
41533;DHT22;27262;-35.248;149.138;2023-09-19T13:58:31;22.50;58.00
41533;DHT22;27262;-35.248;149.138;2023-09-19T14:01:03;22.50;58.00
41533;DHT22;27262;-35.248;149.138;2023-09-19T14:03:33;22.50;58.00
41533;DHT22;27262;-35.248;149.138;2023-09-19T14:06:04;22.50;58.00
41533;DHT22;27262;-35.248;149.138;2023-09-19T14:08:35;22.50;58.10
41533;DHT22;27262;-35.248;149.138;2023-09-19T14:11:10;22.40;58.00
41533;DHT22;27262;-35.248;149.138;2023-09-19T14:13:40;22.40;58.10
41533;DHT22;27262;-35.248;149.138;2023-09-19T14:16:17;22.40;58.10
41533;DHT22;27262;-35.248;149.138;2023-09-19T14:18:48;22.40;58.10
41533;DHT22;27262;-35.248;149.138;2023-09-19T14:21:19;22.40;58.10
41533;DHT22;27262;-35.248;149.138;2023-09-19T14:23:49;22.40;58.10
41533;DHT22;27262;-35.248;149.138;2023-09-19T14:26:20;22.40;58.10
41533;DHT22;27262;-35.248;149.138;2023-09-19T14:28:52;22.40;58.10
41533;DHT22;27262;-35.248;149.138;2023-09-19T14:31:23;22.40;58.10
41533;DHT22;27262;-35.248;149.138;2023-09-19T14:33:58;22.40;58.10
41533;DHT22;27262;-35.248;149.138;2023-09-19T14:36:29;22.40;58.10
41533;DHT22;27262;-35.248;149.138;2023-09-19T14:38:59;22.40;58.20
41533;DHT22;27262;-35.248;149.138;2023-09-19T14:41:30;22.40;58.20
41533;DHT22;27262;-35.248;149.138;2023-09-19T14:44:02;22.30;58.10
41533;DHT22;27262;-35.248;149.138;2023-09-19T14:46:36;22.30;58.10
41533;DHT22;27262;-35.248;149.138;2023-09-19T14:49:07;22.30;58.10
41533;DHT22;27262;-35.248;149.138;2023-09-19T14:51:39;22.30;58.10
41533;DHT22;27262;-35.248;149.138;2023-09-19T14:54:10;22.30;58.10
41533;DHT22;27262;-35.248;149.138;2023-09-19T14:56:41;22.30;58.10
41533;DHT22;27262;-35.248;149.138;2023-09-19T14:59:12;22.30;58.10
41533;DHT22;27262;-35.248;149.138;2023-09-19T15:01:44;22.30;58.10
41533;DHT22;27262;-35.248;149.138;2023-09-19T15:04:14;22.30;58.10
41533;DHT22;27262;-35.248;149.138;2023-09-19T15:06:45;22.30;58.10
41533;DHT22;27262;-35.248;149.138;2023-09-19T15:09:16;22.30;58.10
41533;DHT22;27262;-35.248;149.138;2023-09-19T15:11:48;22.30;58.10
41533;DHT22;27262;-35.248;149.138;2023-09-19T15:14:19;22.20;58.10
41533;DHT22;27262;-35.248;149.138;2023-09-19T15:16:50;22.20;58.10
41533;DHT22;27262;-35.248;149.138;2023-09-19T15:19:22;22.20;58.10
41533;DHT22;27262;-35.248;149.138;2023-09-19T15:21:52;22.20;58.10
41533;DHT22;27262;-35.248;149.138;2023-09-19T15:24:23;22.20;58.10
41533;DHT22;27262;-35.248;149.138;2023-09-19T15:26:55;22.20;58.10
41533;DHT22;27262;-35.248;149.138;2023-09-19T15:29:26;22.20;58.10
41533;DHT22;27262;-35.248;149.138;2023-09-19T15:31:56;22.20;58.10
41533;DHT22;27262;-35.248;149.138;2023-09-19T15:34:31;22.20;58.10
41533;DHT22;27262;-35.248;149.138;2023-09-19T15:37:01;22.20;58.10
41533;DHT22;27262;-35.248;149.138;2023-09-19T15:39:32;22.20;58.10
41533;DHT22;27262;-35.248;149.138;2023-09-19T15:42:06;22.20;58.10
41533;DHT22;27262;-35.248;149.138;2023-09-19T15:44:37;22.10;58.10
41533;DHT22;27262;-35.248;149.138;2023-09-19T15:47:07;22.20;58.10
41533;DHT22;27262;-35.248;149.138;2023-09-19T15:49:38;22.10;58.10
41533;DHT22;27262;-35.248;149.138;2023-09-19T15:52:08;22.10;58.20
41533;DHT22;27262;-35.248;149.138;2023-09-19T15:54:39;22.10;58.10
41533;DHT22;27262;-35.248;149.138;2023-09-19T15:57:14;22.10;58.10
41533;DHT22;27262;-35.248;149.138;2023-09-19T15:59:44;22.10;58.10
41533;DHT22;27262;-35.248;149.138;2023-09-19T16:02:16;22.10;58.10
41533;DHT22;27262;-35.248;149.138;2023-09-19T16:04:47;22.10;58.10
41533;DHT22;27262;-35.248;149.138;2023-09-19T16:07:17;22.10;58.10
41533;DHT22;27262;-35.248;149.138;2023-09-19T16:09:48;22.10;58.20
41533;DHT22;27262;-35.248;149.138;2023-09-19T16:12:18;22.10;58.30
41533;DHT22;27262;-35.248;149.138;2023-09-19T16:14:48;22.10;58.30